sensor_id;sensor_type;location;lat;lon;timestamp;pressure;altitude;pressure_sealevel;temperature;humidity
39681;BME280;26327;42.550;23.120;2023-04-25T05:53:26;91965.19;;;12.13;100.00
39681;BME280;26327;42.550;23.120;2023-04-25T05:55:51;91927.22;;;11.67;100.00
39681;BME280;26327;42.550;23.120;2023-04-25T05:58:16;91914.53;;;11.46;100.00
39681;BME280;26327;42.550;23.120;2023-04-25T06:00:42;91957.38;;;11.75;100.00
39681;BME280;26327;42.550;23.120;2023-04-25T06:03:07;91924.34;;;11.76;100.00
39681;BME280;26327;42.550;23.120;2023-04-25T06:05:35;91975.22;;;11.78;100.00
39681;BME280;26327;42.550;23.120;2023-04-25T06:08:00;91986.88;;;11.62;100.00
39681;BME280;26327;42.550;23.120;2023-04-25T06:10:26;91973.69;;;12.02;100.00
39681;BME280;26327;42.550;23.120;2023-04-25T06:12:51;91990.03;;;12.16;100.00
39681;BME280;26327;42.550;23.120;2023-04-25T06:15:17;91894.97;;;11.37;100.00
39681;BME280;26327;42.550;23.120;2023-04-25T06:17:42;91985.97;;;11.95;100.00
39681;BME280;26327;42.550;23.120;2023-04-25T06:20:08;91909.94;;;11.80;100.00
39681;BME280;26327;42.550;23.120;2023-04-25T06:22:34;91972.53;;;12.79;100.00
39681;BME280;26327;42.550;23.120;2023-04-25T06:24:59;91982.78;;;12.49;100.00
39681;BME280;26327;42.550;23.120;2023-04-25T06:27:25;91904.66;;;11.93;100.00
39681;BME280;26327;42.550;23.120;2023-04-25T06:29:51;91862.31;;;11.73;100.00
39681;BME280;26327;42.550;23.120;2023-04-25T06:32:16;91968.78;;;12.69;100.00
39681;BME280;26327;42.550;23.120;2023-04-25T06:34:43;91971.44;;;12.62;100.00
39681;BME280;26327;42.550;23.120;2023-04-25T06:37:08;91983.31;;;12.58;100.00
39681;BME280;26327;42.550;23.120;2023-04-25T06:39:34;92003.31;;;12.39;100.00
39681;BME280;26327;42.550;23.120;2023-04-25T06:42:00;91991.72;;;12.28;100.00
39681;BME280;26327;42.550;23.120;2023-04-25T06:44:25;91927.25;;;11.99;100.00
39681;BME280;26327;42.550;23.120;2023-04-25T06:46:51;91940.59;;;12.09;100.00
39681;BME280;26327;42.550;23.120;2023-04-25T06:49:16;91983.91;;;12.28;100.00
39681;BME280;26327;42.550;23.120;2023-04-25T06:51:42;92007.13;;;12.61;100.00
39681;BME280;26327;42.550;23.120;2023-04-25T06:54:07;91944.94;;;11.90;100.00
39681;BME280;26327;42.550;23.120;2023-04-25T06:56:33;91927.22;;;11.67;100.00
39681;BME280;26327;42.550;23.120;2023-04-25T06:58:58;92008.78;;;12.31;100.00
39681;BME280;26327;42.550;23.120;2023-04-25T07:01:25;91990.16;;;12.52;100.00
39681;BME280;26327;42.550;23.120;2023-04-25T07:03:50;92000.50;;;12.41;100.00
39681;BME280;26327;42.550;23.120;2023-04-25T07:06:16;92007.13;;;12.37;100.00
39681;BME280;26327;42.550;23.120;2023-04-25T07:08:41;92009.47;;;12.95;100.00
39681;BME280;26327;42.550;23.120;2023-04-25T07:11:07;92006.19;;;12.81;100.00
39681;BME280;26327;42.550;23.120;2023-04-25T07:13:32;91945.88;;;12.52;100.00
39681;BME280;26327;42.550;23.120;2023-04-25T07:15:57;91939.66;;;12.78;100.00
39681;BME280;26327;42.550;23.120;2023-04-25T07:18:23;91995.91;;;12.86;100.00
39681;BME280;26327;42.550;23.120;2023-04-25T07:20:48;91913.50;;;13.03;100.00
39681;BME280;26327;42.550;23.120;2023-04-25T07:23:14;91982.97;;;12.98;100.00
39681;BME280;26327;42.550;23.120;2023-04-25T07:25:39;91939.59;;;12.60;100.00
39681;BME280;26327;42.550;23.120;2023-04-25T07:28:05;91926.25;;;12.50;100.00
39681;BME280;26327;42.550;23.120;2023-04-25T07:30:30;91946.41;;;13.22;100.00
39681;BME280;26327;42.550;23.120;2023-04-25T07:32:56;91982.97;;;13.16;100.00
39681;BME280;26327;42.550;23.120;2023-04-25T07:35:21;91999.25;;;13.36;100.00
39681;BME280;26327;42.550;23.120;2023-04-25T07:37:47;91938.06;;;12.77;100.00
39681;BME280;26327;42.550;23.120;2023-04-25T07:40:13;91990.19;;;13.75;100.00
39681;BME280;26327;42.550;23.120;2023-04-25T07:42:40;91967.53;;;14.83;100.00
39681;BME280;26327;42.550;23.120;2023-04-25T07:45:06;91984.47;;;15.38;100.00
39681;BME280;26327;42.550;23.120;2023-04-25T07:47:32;91987.63;;;15.52;99.78
39681;BME280;26327;42.550;23.120;2023-04-25T07:49:57;91988.19;;;14.49;100.00
39681;BME280;26327;42.550;23.120;2023-04-25T07:52:23;91912.50;;;14.54;100.00
39681;BME280;26327;42.550;23.120;2023-04-25T07:54:49;91929.56;;;14.92;100.00
39681;BME280;26327;42.550;23.120;2023-04-25T07:57:14;91915.56;;;14.63;100.00
39681;BME280;26327;42.550;23.120;2023-04-25T07:59:40;91988.03;;;17.58;89.56
39681;BME280;26327;42.550;23.120;2023-04-25T08:02:05;91971.50;;;18.02;86.32
39681;BME280;26327;42.550;23.120;2023-04-25T08:04:30;91967.59;;;16.88;87.73
39681;BME280;26327;42.550;23.120;2023-04-25T08:06:56;91977.63;;;16.75;88.46
39681;BME280;26327;42.550;23.120;2023-04-25T08:09:21;91924.66;;;14.95;94.10
39681;BME280;26327;42.550;23.120;2023-04-25T08:11:47;91988.13;;;15.26;100.00
39681;BME280;26327;42.550;23.120;2023-04-25T08:14:13;91926.41;;;15.65;100.00
39681;BME280;26327;42.550;23.120;2023-04-25T08:16:39;91942.22;;;15.58;100.00
39681;BME280;26327;42.550;23.120;2023-04-25T08:19:04;91987.00;;;16.42;96.13
39681;BME280;26327;42.550;23.120;2023-04-25T08:21:31;91879.91;;;16.34;95.50
39681;BME280;26327;42.550;23.120;2023-04-25T08:23:57;91919.41;;;18.84;92.98
39681;BME280;26327;42.550;23.120;2023-04-25T08:26:24;91972.19;;;19.42;85.90
39681;BME280;26327;42.550;23.120;2023-04-25T08:28:49;91925.03;;;19.93;83.57
39681;BME280;26327;42.550;23.120;2023-04-25T08:31:15;91924.97;;;21.91;79.44
39681;BME280;26327;42.550;23.120;2023-04-25T08:33:40;91913.13;;;22.77;71.00
39681;BME280;26327;42.550;23.120;2023-04-25T08:36:06;91943.78;;;25.82;70.06
39681;BME280;26327;42.550;23.120;2023-04-25T08:38:31;91887.78;;;24.94;59.23
39681;BME280;26327;42.550;23.120;2023-04-25T08:40:59;91925.63;;;25.70;51.75
39681;BME280;26327;42.550;23.120;2023-04-25T08:43:26;91936.56;;;24.85;57.48
39681;BME280;26327;42.550;23.120;2023-04-25T08:45:59;91947.88;;;24.76;55.62
39681;BME280;26327;42.550;23.120;2023-04-25T08:48:27;91927.81;;;20.79;64.77
39681;BME280;26327;42.550;23.120;2023-04-25T08:50:54;91946.41;;;22.49;62.97
39681;BME280;26327;42.550;23.120;2023-04-25T08:53:28;91951.25;;;22.37;65.12
39681;BME280;26327;42.550;23.120;2023-04-25T08:55:56;91894.13;;;22.30;59.67
39681;BME280;26327;42.550;23.120;2023-04-25T08:58:22;91920.69;;;20.54;61.61
39681;BME280;26327;42.550;23.120;2023-04-25T09:00:48;91954.91;;;20.29;66.37
39681;BME280;26327;42.550;23.120;2023-04-25T09:03:15;91914.88;;;20.98;63.89
39681;BME280;26327;42.550;23.120;2023-04-25T09:05:41;91946.97;;;22.90;60.42
39681;BME280;26327;42.550;23.120;2023-04-25T09:08:06;91898.97;;;23.97;55.70
39681;BME280;26327;42.550;23.120;2023-04-25T09:10:32;91891.66;;;25.21;53.16
39681;BME280;26327;42.550;23.120;2023-04-25T09:13:25;91937.13;;;26.61;37.55
39681;BME280;26327;42.550;23.120;2023-04-25T09:15:52;91935.88;;;26.18;40.00
39681;BME280;26327;42.550;23.120;2023-04-25T09:18:31;91913.06;;;22.87;48.20
39681;BME280;26327;42.550;23.120;2023-04-25T09:21:09;91863.88;;;22.76;46.20
39681;BME280;26327;42.550;23.120;2023-04-25T09:23:46;91918.28;;;23.55;47.64
39681;BME280;26327;42.550;23.120;2023-04-25T09:26:17;91876.97;;;23.97;42.38
39681;BME280;26327;42.550;23.120;2023-04-25T09:28:43;91874.56;;;24.19;40.15
39681;BME280;26327;42.550;23.120;2023-04-25T09:31:12;91927.03;;;20.89;46.00
39681;BME280;26327;42.550;23.120;2023-04-25T09:33:37;91927.00;;;21.40;52.37
39681;BME280;26327;42.550;23.120;2023-04-25T09:36:10;91919.72;;;23.95;44.80
39681;BME280;26327;42.550;23.120;2023-04-25T09:38:46;91933.34;;;25.39;39.40
39681;BME280;26327;42.550;23.120;2023-04-25T09:41:11;91924.19;;;27.05;35.04
39681;BME280;26327;42.550;23.120;2023-04-25T09:43:38;91884.47;;;26.81;35.21
39681;BME280;26327;42.550;23.120;2023-04-25T09:46:10;91951.88;;;26.04;35.72
39681;BME280;26327;42.550;23.120;2023-04-25T09:48:36;91873.72;;;24.94;35.17
39681;BME280;26327;42.550;23.120;2023-04-25T09:53:31;91946.66;;;23.54;37.49
39681;BME280;26327;42.550;23.120;2023-04-25T09:55:59;91887.91;;;24.14;37.52
39681;BME280;26327;42.550;23.120;2023-04-25T09:58:29;91909.16;;;25.54;35.55
39681;BME280;26327;42.550;23.120;2023-04-25T10:00:59;91923.75;;;26.25;35.10
39681;BME280;26327;42.550;23.120;2023-04-25T10:03:25;91921.19;;;25.19;35.61
39681;BME280;26327;42.550;23.120;2023-04-25T10:05:52;91891.09;;;23.92;37.62
39681;BME280;26327;42.550;23.120;2023-04-25T10:08:19;91923.63;;;24.64;36.37
39681;BME280;26327;42.550;23.120;2023-04-25T10:10:48;91937.97;;;24.63;37.95
39681;BME280;26327;42.550;23.120;2023-04-25T10:13:16;91887.72;;;24.67;36.32
39681;BME280;26327;42.550;23.120;2023-04-25T10:15:41;91865.25;;;24.40;35.12
39681;BME280;26327;42.550;23.120;2023-04-25T10:18:08;91920.78;;;23.94;37.32
39681;BME280;26327;42.550;23.120;2023-04-25T10:20:34;91824.88;;;22.86;37.77
39681;BME280;26327;42.550;23.120;2023-04-25T10:23:11;91929.19;;;22.90;37.55
39681;BME280;26327;42.550;23.120;2023-04-25T10:25:38;91880.00;;;21.96;38.48
39681;BME280;26327;42.550;23.120;2023-04-25T10:28:05;91949.66;;;21.61;42.08
39681;BME280;26327;42.550;23.120;2023-04-25T10:30:31;91946.84;;;20.91;44.66
39681;BME280;26327;42.550;23.120;2023-04-25T10:32:58;91922.91;;;19.95;49.48
39681;BME280;26327;42.550;23.120;2023-04-25T10:35:26;91873.25;;;18.72;54.66
39681;BME280;26327;42.550;23.120;2023-04-25T10:38:08;91980.44;;;18.28;63.06
39681;BME280;26327;42.550;23.120;2023-04-25T10:40:35;91974.53;;;17.33;71.21
39681;BME280;26327;42.550;23.120;2023-04-25T10:45:53;91904.03;;;21.04;56.50
39681;BME280;26327;42.550;23.120;2023-04-25T10:48:26;91903.47;;;21.18;52.16
39681;BME280;26327;42.550;23.120;2023-04-25T10:51:10;91937.88;;;19.84;57.54
39681;BME280;26327;42.550;23.120;2023-04-25T10:53:36;91926.75;;;22.99;50.80
39681;BME280;26327;42.550;23.120;2023-04-25T10:56:10;91888.13;;;25.39;43.00
39681;BME280;26327;42.550;23.120;2023-04-25T10:58:41;91904.75;;;26.68;40.79
39681;BME280;26327;42.550;23.120;2023-04-25T11:01:06;91886.38;;;28.70;35.80
39681;BME280;26327;42.550;23.120;2023-04-25T11:03:32;91890.41;;;29.62;32.48
39681;BME280;26327;42.550;23.120;2023-04-25T11:05:58;91882.88;;;30.02;32.64
39681;BME280;26327;42.550;23.120;2023-04-25T11:08:45;91900.88;;;29.76;29.97
39681;BME280;26327;42.550;23.120;2023-04-25T11:11:12;91878.38;;;29.77;30.41
39681;BME280;26327;42.550;23.120;2023-04-25T11:13:38;91855.34;;;27.38;35.51
39681;BME280;26327;42.550;23.120;2023-04-25T11:16:07;91861.03;;;25.37;37.76
39681;BME280;26327;42.550;23.120;2023-04-25T11:18:33;91883.84;;;23.98;40.71
39681;BME280;26327;42.550;23.120;2023-04-25T11:20:59;91860.72;;;21.90;47.34
39681;BME280;26327;42.550;23.120;2023-04-25T11:23:25;91856.16;;;21.47;46.99
39681;BME280;26327;42.550;23.120;2023-04-25T11:25:52;91866.84;;;20.75;48.67
39681;BME280;26327;42.550;23.120;2023-04-25T11:28:21;91939.41;;;19.70;56.60
39681;BME280;26327;42.550;23.120;2023-04-25T11:30:50;91951.03;;;19.32;54.07
39681;BME280;26327;42.550;23.120;2023-04-25T11:33:16;91965.94;;;18.25;60.76
39681;BME280;26327;42.550;23.120;2023-04-25T11:35:42;91942.88;;;16.84;66.37
39681;BME280;26327;42.550;23.120;2023-04-25T11:38:07;91954.59;;;15.74;69.99
39681;BME280;26327;42.550;23.120;2023-04-25T11:40:35;91906.91;;;14.97;73.47
39681;BME280;26327;42.550;23.120;2023-04-25T11:43:01;91958.66;;;15.19;72.99
39681;BME280;26327;42.550;23.120;2023-04-25T11:45:26;91904.53;;;13.96;80.34
39681;BME280;26327;42.550;23.120;2023-04-25T11:47:52;91952.50;;;14.55;79.05
39681;BME280;26327;42.550;23.120;2023-04-25T11:50:18;91911.50;;;14.13;82.50
39681;BME280;26327;42.550;23.120;2023-04-25T11:52:46;91891.75;;;12.54;90.79
39681;BME280;26327;42.550;23.120;2023-04-25T11:55:16;91889.34;;;12.28;93.87
39681;BME280;26327;42.550;23.120;2023-04-25T11:57:43;91943.94;;;13.09;90.65
39681;BME280;26327;42.550;23.120;2023-04-25T12:00:13;91897.59;;;13.30;93.18
39681;BME280;26327;42.550;23.120;2023-04-25T12:02:53;91954.84;;;12.81;95.16
39681;BME280;26327;42.550;23.120;2023-04-25T12:05:19;91962.81;;;13.30;100.00
39681;BME280;26327;42.550;23.120;2023-04-25T12:07:46;91948.13;;;13.65;100.00
39681;BME280;26327;42.550;23.120;2023-04-25T12:10:16;91955.75;;;14.38;99.30
39681;BME280;26327;42.550;23.120;2023-04-25T12:12:43;91951.22;;;14.04;96.64
39681;BME280;26327;42.550;23.120;2023-04-25T12:15:14;91959.22;;;13.06;96.58
39681;BME280;26327;42.550;23.120;2023-04-25T12:17:48;91889.19;;;11.66;100.00
39681;BME280;26327;42.550;23.120;2023-04-25T12:20:24;91931.97;;;11.84;100.00
39681;BME280;26327;42.550;23.120;2023-04-25T12:22:51;91945.84;;;12.34;100.00
39681;BME280;26327;42.550;23.120;2023-04-25T12:25:35;91944.91;;;12.72;100.00
39681;BME280;26327;42.550;23.120;2023-04-25T12:28:22;91945.41;;;13.42;100.00
39681;BME280;26327;42.550;23.120;2023-04-25T12:31:07;91879.34;;;13.71;100.00
39681;BME280;26327;42.550;23.120;2023-04-25T12:33:33;91945.56;;;15.07;100.00
39681;BME280;26327;42.550;23.120;2023-04-25T12:35:59;91876.91;;;14.65;89.96
39681;BME280;26327;42.550;23.120;2023-04-25T12:38:30;91805.66;;;14.58;90.15
39681;BME280;26327;42.550;23.120;2023-04-25T12:40:57;91875.69;;;15.31;82.99
39681;BME280;26327;42.550;23.120;2023-04-25T12:43:23;91937.44;;;15.67;81.90
39681;BME280;26327;42.550;23.120;2023-04-25T12:45:52;91937.63;;;14.90;90.84
39681;BME280;26327;42.550;23.120;2023-04-25T12:48:18;91885.09;;;14.57;92.34
39681;BME280;26327;42.550;23.120;2023-04-25T12:50:44;91898.63;;;14.89;93.60
39681;BME280;26327;42.550;23.120;2023-04-25T12:53:10;91924.00;;;14.76;94.53
39681;BME280;26327;42.550;23.120;2023-04-25T12:55:37;91910.03;;;14.71;95.78
39681;BME280;26327;42.550;23.120;2023-04-25T12:58:02;91915.44;;;13.93;98.09
39681;BME280;26327;42.550;23.120;2023-04-25T13:00:29;91847.09;;;14.07;94.99
39681;BME280;26327;42.550;23.120;2023-04-25T13:02:54;91900.53;;;14.35;90.74
39681;BME280;26327;42.550;23.120;2023-04-25T13:05:20;91880.31;;;14.42;91.45
39681;BME280;26327;42.550;23.120;2023-04-25T13:07:46;91889.28;;;15.04;88.88
39681;BME280;26327;42.550;23.120;2023-04-25T13:10:11;91895.47;;;15.79;82.82
39681;BME280;26327;42.550;23.120;2023-04-25T13:12:37;91914.56;;;16.08;81.62
39681;BME280;26327;42.550;23.120;2023-04-25T13:15:02;91920.59;;;15.63;83.99
39681;BME280;26327;42.550;23.120;2023-04-25T13:17:28;91808.66;;;15.01;83.45
39681;BME280;26327;42.550;23.120;2023-04-25T13:19:53;91902.13;;;15.18;84.39
39681;BME280;26327;42.550;23.120;2023-04-25T13:22:19;91914.22;;;15.87;82.45
39681;BME280;26327;42.550;23.120;2023-04-25T13:24:45;91938.22;;;16.24;80.40
39681;BME280;26327;42.550;23.120;2023-04-25T13:27:12;91912.41;;;15.88;81.63
39681;BME280;26327;42.550;23.120;2023-04-25T13:29:37;91914.84;;;15.78;81.95
39681;BME280;26327;42.550;23.120;2023-04-25T13:32:05;91950.44;;;15.90;82.37
39681;BME280;26327;42.550;23.120;2023-04-25T13:34:31;91943.59;;;15.89;83.38
39681;BME280;26327;42.550;23.120;2023-04-25T13:36:56;91946.88;;;15.96;84.88
39681;BME280;26327;42.550;23.120;2023-04-25T13:39:22;91937.19;;;15.57;89.14
39681;BME280;26327;42.550;23.120;2023-04-25T13:41:47;91950.22;;;15.40;93.71
39681;BME280;26327;42.550;23.120;2023-04-25T13:44:12;91875.22;;;14.82;92.78
39681;BME280;26327;42.550;23.120;2023-04-25T13:46:38;91883.28;;;14.80;91.51
39681;BME280;26327;42.550;23.120;2023-04-25T13:49:04;91907.25;;;15.01;89.38
39681;BME280;26327;42.550;23.120;2023-04-25T13:51:29;91943.06;;;15.12;89.72
39681;BME280;26327;42.550;23.120;2023-04-25T13:53:56;91871.13;;;14.51;89.19
39681;BME280;26327;42.550;23.120;2023-04-25T13:56:21;91929.22;;;14.76;89.94
39681;BME280;26327;42.550;23.120;2023-04-25T13:58:48;91868.41;;;14.46;88.09
39681;BME280;26327;42.550;23.120;2023-04-25T14:01:14;91923.09;;;14.83;89.39
39681;BME280;26327;42.550;23.120;2023-04-25T14:03:39;91897.97;;;14.82;85.99
39681;BME280;26327;42.550;23.120;2023-04-25T14:06:05;91844.41;;;14.26;85.78
39681;BME280;26327;42.550;23.120;2023-04-25T14:08:30;91893.53;;;14.70;87.76
39681;BME280;26327;42.550;23.120;2023-04-25T14:10:56;91888.88;;;14.72;87.10
39681;BME280;26327;42.550;23.120;2023-04-25T14:13:21;91915.78;;;15.08;89.42
39681;BME280;26327;42.550;23.120;2023-04-25T14:15:48;91852.28;;;14.72;89.20
39681;BME280;26327;42.550;23.120;2023-04-25T14:18:15;91855.78;;;14.78;85.33
39681;BME280;26327;42.550;23.120;2023-04-25T14:20:40;91904.41;;;15.14;83.16
39681;BME280;26327;42.550;23.120;2023-04-25T14:23:06;91870.88;;;14.88;82.17
39681;BME280;26327;42.550;23.120;2023-04-25T14:25:31;91919.38;;;15.30;82.26
39681;BME280;26327;42.550;23.120;2023-04-25T14:27:57;91849.97;;;14.88;82.71
39681;BME280;26327;42.550;23.120;2023-04-25T14:30:22;91906.81;;;15.16;86.07
39681;BME280;26327;42.550;23.120;2023-04-25T14:32:51;91845.72;;;14.05;89.08
39681;BME280;26327;42.550;23.120;2023-04-25T14:35:16;91875.06;;;15.00;83.12
39681;BME280;26327;42.550;23.120;2023-04-25T14:37:42;91900.06;;;15.20;84.21
39681;BME280;26327;42.550;23.120;2023-04-25T14:40:08;91865.59;;;15.23;81.92
39681;BME280;26327;42.550;23.120;2023-04-25T14:42:38;91906.25;;;15.65;82.32
39681;BME280;26327;42.550;23.120;2023-04-25T14:45:05;91849.19;;;15.56;79.38
39681;BME280;26327;42.550;23.120;2023-04-25T14:47:32;91908.53;;;15.90;80.16
39681;BME280;26327;42.550;23.120;2023-04-25T14:49:57;91785.38;;;15.28;78.11
39681;BME280;26327;42.550;23.120;2023-04-25T14:52:23;91913.84;;;15.95;80.13
39681;BME280;26327;42.550;23.120;2023-04-25T14:54:49;91914.47;;;15.86;81.52
39681;BME280;26327;42.550;23.120;2023-04-25T14:57:15;91895.78;;;15.65;79.71
39681;BME280;26327;42.550;23.120;2023-04-25T14:59:41;91852.75;;;15.50;78.61
39681;BME280;26327;42.550;23.120;2023-04-25T15:02:06;91910.78;;;15.70;79.02
39681;BME280;26327;42.550;23.120;2023-04-25T15:04:32;91822.47;;;14.85;84.04
39681;BME280;26327;42.550;23.120;2023-04-25T15:06:57;91870.19;;;14.34;88.61
39681;BME280;26327;42.550;23.120;2023-04-25T15:09:22;91891.72;;;14.83;86.52
39681;BME280;26327;42.550;23.120;2023-04-25T15:11:49;91831.91;;;14.63;85.02
39681;BME280;26327;42.550;23.120;2023-04-25T15:14:16;91887.78;;;15.08;86.05
39681;BME280;26327;42.550;23.120;2023-04-25T15:16:41;91871.09;;;14.28;87.59
39681;BME280;26327;42.550;23.120;2023-04-25T15:19:07;91807.53;;;13.27;90.45
39681;BME280;26327;42.550;23.120;2023-04-25T15:21:33;91869.97;;;13.22;95.49
39681;BME280;26327;42.550;23.120;2023-04-25T15:23:58;91784.13;;;12.36;96.98
39681;BME280;26327;42.550;23.120;2023-04-25T15:26:24;91840.78;;;12.77;97.85
39681;BME280;26327;42.550;23.120;2023-04-25T15:28:50;91863.03;;;12.98;98.76
39681;BME280;26327;42.550;23.120;2023-04-25T15:31:15;91798.97;;;12.53;97.09
39681;BME280;26327;42.550;23.120;2023-04-25T15:33:41;91852.50;;;12.68;94.24
39681;BME280;26327;42.550;23.120;2023-04-25T15:36:06;91859.25;;;12.57;95.89
39681;BME280;26327;42.550;23.120;2023-04-25T15:38:32;91822.94;;;12.80;96.74
39681;BME280;26327;42.550;23.120;2023-04-25T15:40:57;91844.53;;;13.36;96.49
39681;BME280;26327;42.550;23.120;2023-04-25T15:43:23;91861.00;;;13.18;92.88
39681;BME280;26327;42.550;23.120;2023-04-25T15:45:48;91858.69;;;13.28;95.32
39681;BME280;26327;42.550;23.120;2023-04-25T15:48:14;91864.84;;;13.34;96.10
39681;BME280;26327;42.550;23.120;2023-04-25T15:50:40;91787.38;;;13.34;96.92
39681;BME280;26327;42.550;23.120;2023-04-25T15:53:06;91847.91;;;13.66;96.78
39681;BME280;26327;42.550;23.120;2023-04-25T15:55:31;91856.91;;;13.40;95.03
39681;BME280;26327;42.550;23.120;2023-04-25T15:57:58;91794.16;;;12.87;96.71
39681;BME280;26327;42.550;23.120;2023-04-25T16:00:24;91789.25;;;13.09;97.94
39681;BME280;26327;42.550;23.120;2023-04-25T16:02:49;91840.66;;;12.90;95.46
39681;BME280;26327;42.550;23.120;2023-04-25T16:05:16;91859.53;;;13.04;96.91
39681;BME280;26327;42.550;23.120;2023-04-25T16:07:43;91845.56;;;13.35;97.17
39681;BME280;26327;42.550;23.120;2023-04-25T16:10:10;91787.63;;;12.96;95.08
39681;BME280;26327;42.550;23.120;2023-04-25T16:12:38;91867.44;;;13.34;96.42
39681;BME280;26327;42.550;23.120;2023-04-25T16:15:03;91846.59;;;13.45;97.61
39681;BME280;26327;42.550;23.120;2023-04-25T16:17:29;91860.50;;;14.11;95.92
39681;BME280;26327;42.550;23.120;2023-04-25T16:19:55;91859.03;;;14.15;96.66
39681;BME280;26327;42.550;23.120;2023-04-25T16:22:21;91879.88;;;13.80;94.61
39681;BME280;26327;42.550;23.120;2023-04-25T16:24:46;91852.47;;;13.71;93.44
39681;BME280;26327;42.550;23.120;2023-04-25T16:27:12;91805.41;;;12.51;90.60
39681;BME280;26327;42.550;23.120;2023-04-25T16:29:38;91800.09;;;12.21;93.18
39681;BME280;26327;42.550;23.120;2023-04-25T16:32:03;91852.09;;;12.52;94.22
39681;BME280;26327;42.550;23.120;2023-04-25T16:34:29;91831.44;;;12.51;95.67
39681;BME280;26327;42.550;23.120;2023-04-25T16:36:55;91877.41;;;12.64;94.91
39681;BME280;26327;42.550;23.120;2023-04-25T16:39:22;91874.66;;;12.77;98.07
39681;BME280;26327;42.550;23.120;2023-04-25T16:41:48;91823.06;;;12.31;98.51
39681;BME280;26327;42.550;23.120;2023-04-25T16:44:13;91691.72;;;11.33;99.11
39681;BME280;26327;42.550;23.120;2023-04-25T16:46:39;91863.59;;;12.45;100.00
39681;BME280;26327;42.550;23.120;2023-04-25T16:49:04;91832.75;;;12.42;100.00
39681;BME280;26327;42.550;23.120;2023-04-25T16:51:31;91858.03;;;12.78;98.58
39681;BME280;26327;42.550;23.120;2023-04-25T16:53:57;91894.72;;;13.13;97.56
39681;BME280;26327;42.550;23.120;2023-04-25T16:56:22;91873.44;;;12.98;97.38
39681;BME280;26327;42.550;23.120;2023-04-25T16:58:49;91843.19;;;12.78;96.88
39681;BME280;26327;42.550;23.120;2023-04-25T17:01:15;91900.75;;;13.13;97.06
39681;BME280;26327;42.550;23.120;2023-04-25T17:03:42;91908.22;;;12.91;97.83
39681;BME280;26327;42.550;23.120;2023-04-25T17:06:11;91848.47;;;12.72;96.95
39681;BME280;26327;42.550;23.120;2023-04-25T17:08:37;91905.91;;;12.83;97.38
39681;BME280;26327;42.550;23.120;2023-04-25T17:11:03;91909.16;;;12.79;96.87
39681;BME280;26327;42.550;23.120;2023-04-25T17:13:28;91911.38;;;12.75;97.63
39681;BME280;26327;42.550;23.120;2023-04-25T17:15:54;91927.88;;;12.69;97.93
39681;BME280;26327;42.550;23.120;2023-04-25T17:18:21;91913.41;;;12.30;99.31
39681;BME280;26327;42.550;23.120;2023-04-25T17:20:46;91848.88;;;12.07;99.88
39681;BME280;26327;42.550;23.120;2023-04-25T17:23:12;91898.75;;;12.29;99.99
39681;BME280;26327;42.550;23.120;2023-04-25T17:25:37;91915.81;;;12.32;100.00
39681;BME280;26327;42.550;23.120;2023-04-25T17:28:03;91937.59;;;12.37;100.00
39681;BME280;26327;42.550;23.120;2023-04-25T17:30:28;91918.59;;;12.05;100.00
39681;BME280;26327;42.550;23.120;2023-04-25T17:32:54;91891.53;;;11.75;100.00
39681;BME280;26327;42.550;23.120;2023-04-25T17:35:19;91882.53;;;11.84;100.00
39681;BME280;26327;42.550;23.120;2023-04-25T17:37:45;91952.59;;;12.42;100.00
39681;BME280;26327;42.550;23.120;2023-04-25T17:40:11;91847.22;;;11.56;100.00
39681;BME280;26327;42.550;23.120;2023-04-25T17:42:39;91956.78;;;12.43;100.00
39681;BME280;26327;42.550;23.120;2023-04-25T17:45:06;91934.56;;;12.40;100.00
39681;BME280;26327;42.550;23.120;2023-04-25T17:47:32;91942.34;;;12.15;100.00
39681;BME280;26327;42.550;23.120;2023-04-25T17:49:57;91966.38;;;12.17;100.00
39681;BME280;26327;42.550;23.120;2023-04-25T17:52:24;91968.41;;;11.84;100.00
39681;BME280;26327;42.550;23.120;2023-04-25T17:54:49;91965.59;;;11.85;100.00
39681;BME280;26327;42.550;23.120;2023-04-25T17:57:16;91917.97;;;11.78;100.00
39681;BME280;26327;42.550;23.120;2023-04-25T17:59:42;91974.78;;;12.19;100.00
39681;BME280;26327;42.550;23.120;2023-04-25T18:02:07;91972.63;;;12.10;100.00
39681;BME280;26327;42.550;23.120;2023-04-25T18:04:33;91912.66;;;11.60;100.00
39681;BME280;26327;42.550;23.120;2023-04-25T18:07:00;91963.13;;;11.97;100.00
39681;BME280;26327;42.550;23.120;2023-04-25T18:09:25;91971.59;;;11.79;100.00
39681;BME280;26327;42.550;23.120;2023-04-25T18:11:51;91972.00;;;11.76;100.00
39681;BME280;26327;42.550;23.120;2023-04-25T18:14:17;91965.59;;;11.85;100.00
39681;BME280;26327;42.550;23.120;2023-04-25T18:16:45;91973.56;;;11.90;100.00
39681;BME280;26327;42.550;23.120;2023-04-25T18:19:11;91901.56;;;11.33;100.00
39681;BME280;26327;42.550;23.120;2023-04-25T18:21:44;91904.22;;;11.20;100.00
39681;BME280;26327;42.550;23.120;2023-04-25T18:24:13;91983.63;;;11.74;100.00
39681;BME280;26327;42.550;23.120;2023-04-25T18:26:41;91921.22;;;11.22;100.00
39681;BME280;26327;42.550;23.120;2023-04-25T18:29:08;91968.75;;;11.49;100.00
39681;BME280;26327;42.550;23.120;2023-04-25T18:31:34;91981.03;;;11.22;100.00
39681;BME280;26327;42.550;23.120;2023-04-25T18:34:00;91907.16;;;10.92;100.00
39681;BME280;26327;42.550;23.120;2023-04-25T18:36:26;91874.38;;;10.91;100.00
39681;BME280;26327;42.550;23.120;2023-04-25T18:38:54;91969.34;;;11.45;100.00
39681;BME280;26327;42.550;23.120;2023-04-25T18:41:21;91973.78;;;11.38;100.00
39681;BME280;26327;42.550;23.120;2023-04-25T18:43:55;91986.00;;;11.37;100.00